Epworth, IA

9:51 PM CDT on May 04, 2015 (GMT -0500)
South Lake | | Change Station
CLOSE
Current Station
Personal Weather Station
Location: Farley, IA
Elevation: 1083 ft
Nearby Weather Stations

Elev 1083 ft 42.44 °N, 91.00 °W | Updated 24 seconds ago

Rain
Rain
62.9 °F
Feels Like 62.9 °F
N
1.0
Wind Variable Wind from East
Gusts 0.0 mph

Today
High -- | Low -- °F
--% Chance of Precip.
Yesterday
High -- | Low -- °F
Precip. -- in
5:55 AM 8:06 PM
Full, 99% visible
Pressure 30.11 in
Visibility 10.0 miles
Clouds Scattered Clouds 3700 ft
Mostly Cloudy 4400 ft
Overcast 8000 ft
Dew Point 60 °F
Humidity 91%
Rainfall 0.20 in
Snow Depth Not available.
UV 0 out of 12
Pollen 4.50 out of 12
Air Quality Not available.
Flu Activity Local Activity
METAR KDBQ 050153Z AUTO 06005KT 10SM SCT037 BKN044 OVC080 19/14 A3012 RMK AO2 SLP196 T01940144

More Conditions Fewer Conditions

Pressure 30.11 in
Visibility 10.0 miles
Clouds Scattered Clouds 3700 ft
Mostly Cloudy 4400 ft
Overcast 8000 ft
Dew Point 60 °F
Humidity 91%
Rainfall 0.20 in
Snow Depth Not available.
UV 0 out of 12
Pollen 4.50 out of 12
Air Quality Not available.
Flu Activity Local Activity
METAR KDBQ 050153Z AUTO 06005KT 10SM SCT037 BKN044 OVC080 19/14 A3012 RMK AO2 SLP196 T01940144

More Conditions Fewer Conditions

Nepal has a long way to go to dig out and rebuild from a devastating earthquake. We have teamed up with several charities and organizations to make contributing to the relief effort as easy as possible.
How you can help: Portlight Strategies | Red Cross

10-Day Weather Forecast

Almanac

Astronomy

May. 04, 2015 Rise Set
Actual Time
Civil Twilight
Nautical Twilight
Astronomical Twilight
Moon
Length of Visible Light
Length of Day
Tomorrow will be .
, % of the Moon is Illuminated

Today's Extremes

State Highs State Lows

Community

WunderPhotos

Upload Photos

1,818,793 photos uploaded!

WunderBlogs® & News

Nearby

Air Quality

  Air Quality AQ Index Pollutant
Not available.

Snow Depth

Station Depth Elevation

Earthquake Activity

City Distance Mag. Time & Date
Minimum magnitude displayed is 2.5.

Coastal Water Temperatures

Place Temperature

Stations

Nearby Weather Stations

Station Location Temp. Windchill Dew Point Humidity Wind Precip. Elev Updated Type